createdAt,value
2019-04-27T00:00:46.989Z,11.97
2019-04-27T00:03:26.301Z,11.74
2019-04-27T00:05:59.457Z,11.76
2019-04-27T00:08:38.608Z,11.60
2019-04-27T00:11:23.097Z,11.60
2019-04-27T00:13:53.596Z,11.79
2019-04-27T00:16:47.159Z,11.73
2019-04-27T00:19:27.389Z,11.68
2019-04-27T00:22:00.264Z,11.79
2019-04-27T00:24:28.985Z,11.69
2019-04-27T00:26:57.703Z,11.55
2019-04-27T00:29:27.735Z,11.47
2019-04-27T00:31:56.469Z,11.39
2019-04-27T00:34:25.197Z,11.32
2019-04-27T00:36:58.307Z,11.22
2019-04-27T00:39:43.582Z,11.14
2019-04-27T00:42:13.522Z,11.07
2019-04-27T00:44:43.027Z,11.06
2019-04-27T00:47:13.706Z,11.07
2019-04-27T00:49:44.225Z,11.00
2019-04-27T00:52:13.921Z,11.10
2019-04-27T00:54:44.113Z,11.14
2019-04-27T00:57:24.521Z,11.10
2019-04-27T00:59:54.854Z,11.07
2019-04-27T01:02:30.998Z,11.02
2019-04-27T01:05:00.120Z,10.95
2019-04-27T01:07:28.836Z,10.90
2019-04-27T01:09:57.722Z,10.85
2019-04-27T01:12:26.441Z,10.80
2019-04-27T01:14:55.159Z,10.78
2019-04-27T01:17:24.789Z,10.73
2019-04-27T01:19:53.531Z,10.73
2019-04-27T01:22:22.272Z,10.71
2019-04-27T01:24:51.024Z,10.68
2019-04-27T01:27:24.004Z,10.68
2019-04-27T01:29:54.592Z,10.78
2019-04-27T01:32:23.312Z,11.07
2019-04-27T01:34:52.028Z,11.01
2019-04-27T01:37:21.174Z,10.86
2019-04-27T01:39:50.462Z,10.78
2019-04-27T01:42:19.851Z,10.77
2019-04-27T01:44:50.820Z,10.73
2019-04-27T01:47:19.094Z,10.61
2019-04-27T01:49:49.427Z,10.52
2019-04-27T01:52:19.379Z,10.48
2019-04-27T01:54:49.534Z,10.46
2019-04-27T01:57:19.396Z,10.45
2019-04-27T01:59:48.889Z,10.43
2019-04-27T02:02:22.839Z,10.38
2019-04-27T02:04:53.179Z,10.40
2019-04-27T02:07:21.935Z,10.39
2019-04-27T02:09:50.666Z,10.39
2019-04-27T02:12:19.423Z,10.43
2019-04-27T02:14:49.070Z,10.47
2019-04-27T02:17:18.708Z,10.50
2019-04-27T02:19:49.263Z,10.51
2019-04-27T02:22:18.672Z,10.55
2019-04-27T02:24:49.193Z,10.60
2019-04-27T02:27:19.760Z,10.64
2019-04-27T02:30:05.323Z,10.69
2019-04-27T02:32:51.973Z,10.88
2019-04-27T02:35:20.698Z,10.93
2019-04-27T02:37:50.206Z,10.77
2019-04-27T02:40:42.662Z,10.61
2019-04-27T02:43:11.600Z,10.51
2019-04-27T02:45:40.443Z,10.45
2019-04-27T02:48:09.903Z,10.42
2019-04-27T02:50:39.931Z,10.36
2019-04-27T02:53:11.098Z,10.30
2019-04-27T02:55:39.921Z,10.25
2019-04-27T02:58:09.973Z,10.25
2019-04-27T03:00:39.955Z,10.43
2019-04-27T03:03:10.752Z,10.43
2019-04-27T03:05:40.118Z,10.38
2019-04-27T03:08:10.185Z,10.35
2019-04-27T03:10:40.616Z,10.41
2019-04-27T03:13:13.621Z,10.37
2019-04-27T03:16:11.363Z,10.24
2019-04-27T03:18:40.557Z,10.17
2019-04-27T03:21:13.094Z,10.08
2019-04-27T03:23:41.462Z,10.07
2019-04-27T03:26:14.495Z,10.11
2019-04-27T03:28:44.205Z,10.11
2019-04-27T03:31:14.058Z,10.06
2019-04-27T03:33:43.496Z,10.04
2019-04-27T03:36:13.217Z,10.01
2019-04-27T03:38:42.412Z,10.02
2019-04-27T03:41:11.244Z,10.05
2019-04-27T03:43:41.429Z,9.97
2019-04-27T03:46:10.565Z,9.96
2019-04-27T03:48:40.668Z,9.94
2019-04-27T03:51:19.988Z,9.96
2019-04-27T03:54:01.938Z,10.04
2019-04-27T03:56:36.034Z,10.15
2019-04-27T03:59:10.136Z,10.17
2019-04-27T04:01:39.825Z,10.18
2019-04-27T04:04:10.345Z,10.41
2019-04-27T04:06:40.055Z,10.37
2019-04-27T04:09:12.941Z,10.37
2019-04-27T04:11:46.165Z,10.66
2019-04-27T04:14:16.474Z,10.72
2019-04-27T04:16:46.835Z,10.77
2019-04-27T04:19:15.570Z,10.81
2019-04-27T04:21:44.297Z,10.80
2019-04-27T04:24:13.499Z,10.80
2019-04-27T04:26:42.246Z,10.81
2019-04-27T04:29:11.012Z,11.00
2019-04-27T04:31:46.135Z,11.09
2019-04-27T04:34:14.849Z,11.21
2019-04-27T04:36:43.573Z,11.25
2019-04-27T04:39:12.874Z,11.38
2019-04-27T04:42:01.612Z,11.44
2019-04-27T04:44:47.042Z,11.59
2019-04-27T04:47:19.476Z,11.83
2019-04-27T04:49:54.602Z,12.02
2019-04-27T04:52:19.746Z,12.21
2019-04-27T04:54:49.602Z,12.38
2019-04-27T04:57:21.937Z,13.07
2019-04-27T04:59:51.493Z,13.49
2019-04-27T05:02:20.431Z,13.58
2019-04-27T05:04:49.282Z,13.80
2019-04-27T05:07:19.414Z,13.76
2019-04-27T05:09:48.642Z,13.93
2019-04-27T05:12:19.007Z,14.13
2019-04-27T05:14:48.965Z,14.33
2019-04-27T05:17:19.474Z,14.78
2019-04-27T05:19:49.178Z,14.95
2019-04-27T05:22:19.514Z,15.02
2019-04-27T05:24:49.916Z,15.23
2019-04-27T05:27:19.105Z,15.57
2019-04-27T05:29:48.826Z,15.77
2019-04-27T05:32:18.879Z,15.95
2019-04-27T05:34:49.537Z,16.16
2019-04-27T05:37:27.703Z,16.36
2019-04-27T05:39:48.966Z,16.42
2019-04-27T05:42:20.010Z,16.53
2019-04-27T05:45:03.568Z,17.01
2019-04-27T05:47:36.831Z,16.97
2019-04-27T05:50:09.058Z,17.14
2019-04-27T05:52:38.670Z,17.22
2019-04-27T05:55:10.408Z,17.32
2019-04-27T05:57:39.254Z,17.71
2019-04-27T06:00:09.336Z,17.95
2019-04-27T06:02:39.729Z,18.31
2019-04-27T06:05:08.933Z,18.48
2019-04-27T06:07:39.507Z,18.12
2019-04-27T06:10:09.548Z,18.01
2019-04-27T06:12:39.604Z,17.94
2019-04-27T06:15:09.755Z,17.95
2019-04-27T06:17:38.804Z,18.06
2019-04-27T06:20:09.108Z,18.28
2019-04-27T06:22:38.998Z,18.50
2019-04-27T06:25:11.340Z,18.34
2019-04-27T06:27:39.691Z,18.52
2019-04-27T06:30:09.407Z,18.72
2019-04-27T06:32:39.575Z,18.79
2019-04-27T06:35:09.861Z,18.98
2019-04-27T06:37:39.834Z,19.10
2019-04-27T06:40:09.797Z,19.29
2019-04-27T06:42:39.809Z,19.20
2019-04-27T06:45:09.928Z,19.10
2019-04-27T06:47:39.661Z,18.99
2019-04-27T06:50:09.560Z,19.26
2019-04-27T06:52:39.015Z,19.19
2019-04-27T06:55:11.102Z,19.49
2019-04-27T06:57:41.172Z,19.82
2019-04-27T07:00:10.474Z,20.21
2019-04-27T07:02:39.342Z,20.43
2019-04-27T07:05:09.087Z,21.10
2019-04-27T07:07:39.514Z,20.89
2019-04-27T07:10:08.694Z,21.26
2019-04-27T07:12:40.709Z,21.71
2019-04-27T07:15:08.987Z,22.00
2019-04-27T07:17:38.913Z,22.28
2019-04-27T07:20:09.073Z,22.25
2019-04-27T07:22:39.698Z,22.03
2019-04-27T07:25:09.100Z,22.47
2019-04-27T07:27:39.472Z,22.61
2019-04-27T07:30:11.734Z,22.77
2019-04-27T07:32:39.705Z,23.01
2019-04-27T07:35:09.841Z,22.91
2019-04-27T07:37:39.365Z,22.99
2019-04-27T07:40:09.202Z,23.18
2019-04-27T07:42:40.816Z,23.11
2019-04-27T07:45:11.311Z,23.24
2019-04-27T07:47:41.801Z,23.16
2019-04-27T07:50:10.622Z,23.38
2019-04-27T07:52:40.530Z,22.93
2019-04-27T07:55:09.599Z,22.83
2019-04-27T07:57:39.851Z,23.08
2019-04-27T08:00:09.954Z,22.86
2019-04-27T08:02:39.078Z,22.84
2019-04-27T08:07:36.464Z,23.01
2019-04-27T08:10:05.795Z,23.15
2019-04-27T08:12:34.528Z,23.45
2019-04-27T08:15:03.353Z,23.50
2019-04-27T08:17:32.076Z,23.32
2019-04-27T08:20:00.802Z,23.74
2019-04-27T08:22:29.713Z,23.54
2019-04-27T08:24:59.516Z,23.68
2019-04-27T08:27:35.903Z,23.87
2019-04-27T08:30:13.942Z,24.06
2019-04-27T08:32:49.541Z,24.03
2019-04-27T08:35:19.496Z,24.10
2019-04-27T08:37:49.567Z,24.32
2019-04-27T08:40:19.422Z,24.91
2019-04-27T08:42:50.914Z,25.06
2019-04-27T08:45:19.298Z,24.92
2019-04-27T08:47:49.724Z,25.03
2019-04-27T08:50:19.240Z,24.53
2019-04-27T08:52:50.224Z,24.33
2019-04-27T08:55:19.575Z,24.17
2019-04-27T08:57:49.015Z,24.18
2019-04-27T09:00:19.428Z,24.20
2019-04-27T09:02:50.293Z,24.22
2019-04-27T09:05:21.170Z,23.81
2019-04-27T09:07:59.505Z,24.35
2019-04-27T09:10:41.582Z,23.93
2019-04-27T09:13:19.506Z,24.05
2019-04-27T09:15:52.805Z,24.34
2019-04-27T09:18:23.348Z,24.31
2019-04-27T09:20:56.758Z,24.40
2019-04-27T09:23:25.679Z,24.65
2019-04-27T09:25:54.788Z,25.03
2019-04-27T09:28:23.527Z,25.31
2019-04-27T09:30:52.439Z,25.09
2019-04-27T09:33:22.367Z,25.23
2019-04-27T09:35:51.267Z,24.97
2019-04-27T09:38:19.984Z,24.80
2019-04-27T09:40:48.847Z,24.63
2019-04-27T09:43:17.563Z,25.02
2019-04-27T09:45:47.197Z,25.52
2019-04-27T09:48:17.603Z,26.17
2019-04-27T09:50:48.401Z,26.63
2019-04-27T09:53:17.175Z,27.12
2019-04-27T09:55:48.580Z,27.12
2019-04-27T09:58:18.571Z,26.61
2019-04-27T10:00:49.139Z,26.68
2019-04-27T10:03:17.857Z,27.36
2019-04-27T10:05:46.602Z,27.58
2019-04-27T10:08:16.985Z,27.25
2019-04-27T10:10:46.003Z,27.30
2019-04-27T10:13:17.798Z,27.16
2019-04-27T10:15:46.659Z,27.19
2019-04-27T10:18:16.309Z,26.42
2019-04-27T10:20:56.923Z,26.42
2019-04-27T10:23:15.884Z,26.27
2019-04-27T10:25:45.787Z,26.27
2019-04-27T10:28:14.678Z,26.39
2019-04-27T10:30:43.592Z,26.09
2019-04-27T10:33:12.315Z,25.84
2019-04-27T10:35:41.036Z,25.59
2019-04-27T10:38:10.025Z,25.46
2019-04-27T10:40:38.882Z,25.00
2019-04-27T10:43:07.592Z,24.74
2019-04-27T10:45:37.839Z,24.86
2019-04-27T10:48:06.778Z,25.05
2019-04-27T10:50:36.593Z,25.50
2019-04-27T10:53:06.969Z,26.20
2019-04-27T10:55:36.334Z,26.43
2019-04-27T10:58:05.438Z,26.33
2019-04-27T11:00:45.078Z,26.29
2019-04-27T11:03:16.647Z,26.64
2019-04-27T11:05:47.026Z,26.38
2019-04-27T11:08:16.739Z,26.57
2019-04-27T11:10:46.198Z,26.02
2019-04-27T11:13:16.522Z,26.27
2019-04-27T11:15:46.187Z,26.48
2019-04-27T11:18:16.719Z,26.74
2019-04-27T11:20:46.724Z,26.86
2019-04-27T11:23:16.389Z,26.88
2019-04-27T11:25:46.813Z,26.66
2019-04-27T11:28:15.808Z,26.13
2019-04-27T11:30:44.686Z,25.95
2019-04-27T11:33:13.412Z,25.74
2019-04-27T11:35:49.976Z,25.64
2019-04-27T11:38:18.695Z,25.58
2019-04-27T11:40:47.443Z,25.48
2019-04-27T11:43:16.226Z,25.96
2019-04-27T11:45:45.787Z,26.30
2019-04-27T11:48:16.146Z,26.56
2019-04-27T11:50:45.890Z,26.62
2019-04-27T11:53:22.580Z,26.84
2019-04-27T11:55:46.343Z,27.06
2019-04-27T11:58:16.485Z,27.34
2019-04-27T12:00:45.337Z,27.56
2019-04-27T12:03:14.065Z,27.86
2019-04-27T12:05:42.839Z,27.83
2019-04-27T12:08:11.572Z,27.66
2019-04-27T12:10:40.294Z,27.34
2019-04-27T12:13:09.061Z,26.71
2019-04-27T12:15:38.164Z,26.54
2019-04-27T12:18:09.005Z,26.40
2019-04-27T12:20:38.283Z,26.44
2019-04-27T12:23:07.020Z,26.34
2019-04-27T12:25:37.410Z,26.18
2019-04-27T12:28:25.614Z,25.95
2019-04-27T12:30:56.123Z,25.87
2019-04-27T12:33:25.574Z,25.94
2019-04-27T12:35:56.882Z,25.88
2019-04-27T12:38:26.341Z,25.86
2019-04-27T12:40:56.596Z,25.72
2019-04-27T12:43:25.581Z,25.77
2019-04-27T12:45:55.917Z,25.84
2019-04-27T12:48:27.696Z,25.87
2019-04-27T12:50:56.550Z,25.74
2019-04-27T12:53:32.890Z,25.80
2019-04-27T12:56:12.039Z,25.79
2019-04-27T12:58:45.058Z,25.86
2019-04-27T13:01:15.782Z,25.77
2019-04-27T13:03:46.235Z,25.83
2019-04-27T13:06:15.099Z,25.96
2019-04-27T13:08:45.699Z,26.05
2019-04-27T13:11:16.109Z,26.14
2019-04-27T13:13:44.752Z,26.30
2019-04-27T13:16:13.471Z,26.32
2019-04-27T13:18:44.490Z,26.52
2019-04-27T13:21:13.214Z,26.67
2019-04-27T13:23:41.937Z,26.88
2019-04-27T13:26:10.920Z,26.85
2019-04-27T13:28:39.651Z,27.01
2019-04-27T13:31:08.361Z,26.88
2019-04-27T13:33:37.252Z,26.43
2019-04-27T13:36:08.604Z,26.26
2019-04-27T13:38:37.326Z,26.15
2019-04-27T13:41:07.795Z,26.15
2019-04-27T13:43:39.993Z,26.00
2019-04-27T13:46:15.743Z,25.61
2019-04-27T13:49:04.580Z,25.17
2019-04-27T13:51:47.831Z,25.23
2019-04-27T13:54:23.684Z,25.08
2019-04-27T13:56:47.674Z,24.94
2019-04-27T13:59:17.310Z,24.90
2019-04-27T14:01:46.056Z,24.79
2019-04-27T14:04:14.761Z,24.72
2019-04-27T14:06:44.342Z,24.61
2019-04-27T14:09:13.067Z,24.54
2019-04-27T14:11:41.797Z,24.67
2019-04-27T14:14:10.767Z,24.52
2019-04-27T14:16:39.488Z,24.62
2019-04-27T14:19:08.619Z,24.51
2019-04-27T14:21:38.800Z,24.64
2019-04-27T14:24:07.620Z,24.75
2019-04-27T14:26:36.346Z,24.73
2019-04-27T14:29:05.225Z,24.69
2019-04-27T14:31:33.951Z,24.55
2019-04-27T14:34:02.676Z,24.54
2019-04-27T14:36:31.512Z,24.29
2019-04-27T14:39:00.325Z,24.21
2019-04-27T14:41:29.090Z,24.04
2019-04-27T14:44:07.475Z,23.95
2019-04-27T14:46:30.469Z,23.63
2019-04-27T14:48:58.937Z,23.58
2019-04-27T14:51:28.585Z,23.37
2019-04-27T14:53:58.872Z,23.17
2019-04-27T14:56:28.259Z,23.08
2019-04-27T14:58:58.656Z,23.01
2019-04-27T15:01:29.048Z,22.98
2019-04-27T15:03:57.858Z,22.95
2019-04-27T15:06:26.636Z,22.93
2019-04-27T15:08:55.780Z,22.70
2019-04-27T15:11:24.653Z,22.82
2019-04-27T15:13:56.790Z,22.75
2019-04-27T15:16:23.964Z,22.59
2019-04-27T15:18:57.069Z,22.56
2019-04-27T15:21:25.959Z,22.60
2019-04-27T15:23:54.678Z,22.44
2019-04-27T15:26:24.099Z,22.28
2019-04-27T15:28:55.043Z,21.89
2019-04-27T15:31:30.612Z,21.19
2019-04-27T15:34:04.131Z,20.93
2019-04-27T15:36:34.432Z,20.86
2019-04-27T15:39:26.975Z,20.79
2019-04-27T15:41:56.339Z,20.77
2019-04-27T15:44:27.846Z,20.35
2019-04-27T15:46:58.024Z,20.01
2019-04-27T15:49:26.743Z,19.79
2019-04-27T15:51:56.242Z,19.53
2019-04-27T15:54:29.020Z,19.25
2019-04-27T15:56:55.636Z,19.01
2019-04-27T15:59:30.879Z,18.83
2019-04-27T16:01:58.985Z,18.69
2019-04-27T16:04:27.713Z,18.49
2019-04-27T16:06:58.266Z,18.19
2019-04-27T16:09:28.314Z,18.02
2019-04-27T16:12:03.603Z,17.83
2019-04-27T16:14:28.937Z,17.76
2019-04-27T16:16:58.832Z,17.80
2019-04-27T16:19:28.703Z,17.89
2019-04-27T16:21:59.125Z,17.74
2019-04-27T16:24:29.010Z,17.63
2019-04-27T16:26:59.121Z,17.94
2019-04-27T16:29:31.474Z,17.79
2019-04-27T16:32:02.741Z,17.64
2019-04-27T16:34:32.970Z,17.42
2019-04-27T16:37:00.788Z,17.44
2019-04-27T16:39:29.503Z,17.36
2019-04-27T16:41:58.709Z,17.63
2019-04-27T16:44:27.690Z,17.60
2019-04-27T16:46:58.160Z,17.37
2019-04-27T16:49:28.899Z,17.09
2019-04-27T16:51:59.069Z,17.31
2019-04-27T16:54:28.304Z,17.60
2019-04-27T16:57:03.297Z,17.84
2019-04-27T16:59:42.651Z,17.86
2019-04-27T17:01:58.315Z,17.92
2019-04-27T17:04:27.037Z,18.08
2019-04-27T17:06:55.929Z,18.02
2019-04-27T17:09:24.794Z,18.00
2019-04-27T17:11:53.618Z,17.97
2019-04-27T17:14:39.404Z,18.09
2019-04-27T17:17:25.715Z,18.15
2019-04-27T17:19:58.027Z,17.98
2019-04-27T17:22:28.705Z,17.53
2019-04-27T17:24:58.110Z,16.66
2019-04-27T17:27:31.873Z,16.18
2019-04-27T17:30:01.743Z,15.97
2019-04-27T17:32:33.802Z,15.79
2019-04-27T17:35:05.686Z,15.80
2019-04-27T17:37:33.852Z,15.95
2019-04-27T17:40:02.869Z,16.04
2019-04-27T17:42:31.857Z,16.08
2019-04-27T17:45:02.262Z,16.05
2019-04-27T17:47:30.978Z,16.08
2019-04-27T17:49:59.836Z,16.12
2019-04-27T17:52:28.553Z,16.15
2019-04-27T17:54:58.927Z,16.19
2019-04-27T17:57:30.172Z,16.18
2019-04-27T18:00:03.470Z,16.12
2019-04-27T18:02:33.866Z,16.02
2019-04-27T18:05:02.955Z,15.89
2019-04-27T18:07:34.905Z,15.62
2019-04-27T18:10:02.123Z,15.36
2019-04-27T18:12:31.078Z,15.17
2019-04-27T18:14:59.801Z,15.18
2019-04-27T18:17:29.632Z,15.20
2019-04-27T18:20:00.639Z,15.14
2019-04-27T18:22:32.260Z,15.05
2019-04-27T18:25:09.553Z,14.86
2019-04-27T18:27:49.835Z,14.92
2019-04-27T18:30:20.589Z,14.77
2019-04-27T18:32:49.306Z,14.69
2019-04-27T18:35:19.973Z,14.65
2019-04-27T18:37:48.636Z,14.60
2019-04-27T18:40:18.210Z,14.62
2019-04-27T18:42:47.159Z,14.62
2019-04-27T18:45:18.265Z,14.57
2019-04-27T18:47:48.164Z,14.58
2019-04-27T18:50:25.395Z,14.76
2019-04-27T18:52:55.687Z,14.73
2019-04-27T18:55:24.403Z,14.63
2019-04-27T18:57:54.489Z,14.53
2019-04-27T19:00:23.484Z,14.43
2019-04-27T19:02:52.211Z,14.72
2019-04-27T19:05:20.970Z,14.70
2019-04-27T19:07:49.713Z,14.49
2019-04-27T19:10:19.196Z,14.41
2019-04-27T19:12:48.476Z,14.42
2019-04-27T19:15:18.340Z,14.38
2019-04-27T19:17:48.909Z,14.47
2019-04-27T19:20:18.665Z,14.44
2019-04-27T19:22:49.013Z,14.41
2019-04-27T19:25:19.530Z,14.46
2019-04-27T19:28:09.118Z,14.50
2019-04-27T19:30:45.814Z,14.61
2019-04-27T19:33:14.566Z,14.62
2019-04-27T19:35:43.291Z,14.59
2019-04-27T19:38:12.023Z,14.63
2019-04-27T19:40:40.886Z,14.74
2019-04-27T19:43:10.319Z,14.75
2019-04-27T19:45:39.257Z,14.67
2019-04-27T19:48:10.403Z,14.66
2019-04-27T19:50:39.233Z,14.62
2019-04-27T19:53:09.721Z,14.51
2019-04-27T19:55:40.424Z,14.60
2019-04-27T19:58:09.278Z,14.52
2019-04-27T20:00:39.841Z,14.76
2019-04-27T20:03:11.113Z,14.78
2019-04-27T20:05:39.930Z,14.67
2019-04-27T20:08:10.224Z,14.66
2019-04-27T20:10:39.038Z,14.62
2019-04-27T20:13:07.762Z,14.46
2019-04-27T20:15:36.479Z,14.35
2019-04-27T20:18:05.401Z,14.29
2019-04-27T20:20:34.130Z,14.27
2019-04-27T20:23:02.861Z,14.25
2019-04-27T20:25:31.746Z,14.17
2019-04-27T20:28:00.966Z,14.26
2019-04-27T20:30:31.534Z,14.26
2019-04-27T20:33:00.960Z,14.13
2019-04-27T20:35:29.760Z,14.06
2019-04-27T20:37:58.488Z,14.07
2019-04-27T20:40:27.440Z,14.09
2019-04-27T20:42:56.162Z,14.14
2019-04-27T20:45:24.880Z,14.12
2019-04-27T20:47:53.831Z,14.16
2019-04-27T20:50:22.561Z,14.17
2019-04-27T20:52:52.855Z,14.13
2019-04-27T20:55:21.648Z,14.08
2019-04-27T20:58:01.041Z,14.09
2019-04-27T21:00:22.091Z,14.03
2019-04-27T21:02:52.484Z,13.99
2019-04-27T21:05:22.775Z,13.99
2019-04-27T21:07:53.070Z,14.05
2019-04-27T21:10:22.015Z,14.09
2019-04-27T21:12:51.838Z,14.00
2019-04-27T21:15:21.417Z,14.00
2019-04-27T21:17:51.200Z,13.94
2019-04-27T21:20:21.911Z,13.91
2019-04-27T21:22:51.505Z,13.85
2019-04-27T21:25:22.088Z,13.84
2019-04-27T21:27:51.329Z,13.81
2019-04-27T21:30:21.325Z,13.75
2019-04-27T21:32:50.846Z,13.86
2019-04-27T21:35:21.126Z,13.71
2019-04-27T21:37:51.199Z,13.60
2019-04-27T21:40:21.449Z,13.55
2019-04-27T21:42:51.120Z,13.62
2019-04-27T21:45:21.741Z,13.51
2019-04-27T21:47:51.886Z,13.51
2019-04-27T21:50:23.299Z,13.43
2019-04-27T21:53:02.567Z,13.36
2019-04-27T21:55:33.043Z,13.44
2019-04-27T21:58:01.771Z,13.35
2019-04-27T22:00:42.517Z,13.31
2019-04-27T22:03:11.590Z,13.30
2019-04-27T22:05:41.779Z,13.28
2019-04-27T22:08:11.909Z,13.24
2019-04-27T22:10:40.796Z,13.31
2019-04-27T22:13:09.515Z,13.27
2019-04-27T22:15:38.399Z,13.22
2019-04-27T22:18:07.319Z,13.18
2019-04-27T22:20:36.046Z,13.14
2019-04-27T22:23:06.389Z,13.11
2019-04-27T22:25:36.677Z,13.13
2019-04-27T22:28:05.502Z,13.17
2019-04-27T22:30:35.090Z,13.11
2019-04-27T22:33:03.820Z,13.07
2019-04-27T22:35:32.550Z,13.06
2019-04-27T22:38:02.020Z,13.07
2019-04-27T22:40:41.941Z,12.99
2019-04-27T22:43:28.501Z,12.93
2019-04-27T22:45:58.132Z,12.89
2019-04-27T22:48:26.852Z,12.87
2019-04-27T22:50:56.588Z,12.81
2019-04-27T22:53:25.340Z,12.83
2019-04-27T22:56:11.134Z,12.87
2019-04-27T22:59:00.581Z,12.88
2019-04-27T23:01:29.744Z,12.91
2019-04-27T23:04:01.905Z,12.80
2019-04-27T23:06:30.487Z,12.99
2019-04-27T23:09:01.667Z,12.98
2019-04-27T23:11:31.345Z,12.94
2019-04-27T23:14:01.047Z,12.86
2019-04-27T23:16:31.499Z,12.75
2019-04-27T23:19:01.830Z,12.72
2019-04-27T23:21:31.251Z,12.72
2019-04-27T23:24:01.846Z,12.71
2019-04-27T23:26:32.144Z,12.86
2019-04-27T23:29:11.013Z,12.76
2019-04-27T23:31:40.695Z,12.66
2019-04-27T23:34:09.493Z,12.63
2019-04-27T23:36:38.176Z,12.60
2019-04-27T23:39:08.036Z,12.68
2019-04-27T23:41:36.721Z,12.77
2019-04-27T23:44:05.414Z,12.70
2019-04-27T23:46:34.339Z,12.75
2019-04-27T23:49:03.016Z,12.72
2019-04-27T23:51:39.252Z,12.70
2019-04-27T23:54:07.948Z,12.64
2019-04-27T23:56:36.626Z,12.56
2019-04-27T23:59:05.528Z,12.47
